sensor_id;sensor_type;location;lat;lon;timestamp;pressure;altitude;pressure_sealevel;temperature;humidity
41800;BME280;27468;47.460;19.034;2023-03-09T00:00:56;98780.16;;;9.31;75.77
41800;BME280;27468;47.460;19.034;2023-03-09T00:03:22;98738.63;;;9.18;75.76
41800;BME280;27468;47.460;19.034;2023-03-09T00:05:58;98728.81;;;9.22;75.67
41800;BME280;27468;47.460;19.034;2023-03-09T00:08:27;98759.63;;;9.40;75.29
41800;BME280;27468;47.460;19.034;2023-03-09T00:10:52;98703.94;;;9.09;75.36
41800;BME280;27468;47.460;19.034;2023-03-09T00:13:19;98748.84;;;9.46;75.10
41800;BME280;27468;47.460;19.034;2023-03-09T00:15:45;98723.78;;;9.38;75.00
41800;BME280;27468;47.460;19.034;2023-03-09T00:18:16;98745.91;;;9.54;75.22
41800;BME280;27468;47.460;19.034;2023-03-09T00:20:42;98726.47;;;9.36;74.92
41800;BME280;27468;47.460;19.034;2023-03-09T00:23:08;98744.31;;;9.50;74.91
41800;BME280;27468;47.460;19.034;2023-03-09T00:25:33;98716.75;;;9.38;74.69
41800;BME280;27468;47.460;19.034;2023-03-09T00:27:59;98691.72;;;9.28;74.72
41800;BME280;27468;47.460;19.034;2023-03-09T00:30:24;98629.94;;;8.98;74.60
41800;BME280;27468;47.460;19.034;2023-03-09T00:32:52;98727.84;;;9.45;74.69
41800;BME280;27468;47.460;19.034;2023-03-09T00:35:18;98691.47;;;9.34;74.42
41800;BME280;27468;47.460;19.034;2023-03-09T00:37:43;98711.88;;;9.49;74.28
41800;BME280;27468;47.460;19.034;2023-03-09T00:40:09;98706.63;;;9.49;74.39
41800;BME280;27468;47.460;19.034;2023-03-09T00:42:39;98735.66;;;9.68;74.22
41800;BME280;27468;47.460;19.034;2023-03-09T00:45:07;98701.25;;;9.52;74.31
41800;BME280;27468;47.460;19.034;2023-03-09T00:47:33;98673.75;;;9.39;74.17
41800;BME280;27468;47.460;19.034;2023-03-09T00:49:58;98725.06;;;9.70;73.98
41800;BME280;27468;47.460;19.034;2023-03-09T00:52:24;98691.31;;;9.59;74.12
41800;BME280;27468;47.460;19.034;2023-03-09T00:54:49;98655.97;;;9.44;73.90
41800;BME280;27468;47.460;19.034;2023-03-09T00:57:19;98658.56;;;9.46;73.69
41800;BME280;27468;47.460;19.034;2023-03-09T00:59:45;98684.47;;;9.55;73.82
41800;BME280;27468;47.460;19.034;2023-03-09T01:02:10;98698.28;;;9.60;73.84
41800;BME280;27468;47.460;19.034;2023-03-09T01:04:36;98712.75;;;9.70;73.78
41800;BME280;27468;47.460;19.034;2023-03-09T01:07:01;98693.81;;;9.62;73.95
41800;BME280;27468;47.460;19.034;2023-03-09T01:09:27;98689.59;;;9.58;73.83
41800;BME280;27468;47.460;19.034;2023-03-09T01:11:52;98703.41;;;9.63;74.36
41800;BME280;27468;47.460;19.034;2023-03-09T01:14:17;98703.41;;;9.63;74.32
41800;BME280;27468;47.460;19.034;2023-03-09T01:16:43;98676.91;;;9.47;74.43
41800;BME280;27468;47.460;19.034;2023-03-09T01:19:08;98687.22;;;9.52;74.43
41800;BME280;27468;47.460;19.034;2023-03-09T01:21:34;98647.94;;;9.27;74.52
41800;BME280;27468;47.460;19.034;2023-03-09T01:23:59;98629.09;;;9.17;74.69
41800;BME280;27468;47.460;19.034;2023-03-09T01:26:24;98663.34;;;9.36;74.88
41800;BME280;27468;47.460;19.034;2023-03-09T01:28:50;98683.81;;;9.50;74.82
41800;BME280;27468;47.460;19.034;2023-03-09T01:31:16;98685.59;;;9.49;74.99
41800;BME280;27468;47.460;19.034;2023-03-09T01:33:42;98642.50;;;9.32;74.82
41800;BME280;27468;47.460;19.034;2023-03-09T01:36:12;98668.16;;;9.47;74.98
41800;BME280;27468;47.460;19.034;2023-03-09T01:38:38;98638.34;;;9.26;75.36
41800;BME280;27468;47.460;19.034;2023-03-09T01:41:03;98656.44;;;9.34;75.16
41800;BME280;27468;47.460;19.034;2023-03-09T01:43:40;98657.09;;;9.39;75.32
41800;BME280;27468;47.460;19.034;2023-03-09T01:49:09;98648.63;;;9.32;75.42
41800;BME280;27468;47.460;19.034;2023-03-09T01:52:19;98649.41;;;9.34;75.52
41800;BME280;27468;47.460;19.034;2023-03-09T01:57:36;98638.84;;;9.15;76.22
41800;BME280;27468;47.460;19.034;2023-03-09T02:00:15;98598.31;;;8.99;76.08
41800;BME280;27468;47.460;19.034;2023-03-09T02:02:45;98639.03;;;9.11;76.34
41800;BME280;27468;47.460;19.034;2023-03-09T02:05:16;98565.22;;;8.73;76.71
41800;BME280;27468;47.460;19.034;2023-03-09T02:07:44;98636.44;;;9.09;76.98
41800;BME280;27468;47.460;19.034;2023-03-09T02:10:25;98634.94;;;9.04;77.39
41800;BME280;27468;47.460;19.034;2023-03-09T02:12:56;98573.31;;;8.69;77.30
41800;BME280;27468;47.460;19.034;2023-03-09T02:15:22;98614.72;;;8.84;77.69
41800;BME280;27468;47.460;19.034;2023-03-09T02:17:49;98598.66;;;8.70;77.93
41800;BME280;27468;47.460;19.034;2023-03-09T02:22:45;98622.78;;;8.79;78.27
41800;BME280;27468;47.460;19.034;2023-03-09T02:27:59;98621.81;;;8.82;78.27
41800;BME280;27468;47.460;19.034;2023-03-09T02:30:27;98602.25;;;8.67;78.43
41800;BME280;27468;47.460;19.034;2023-03-09T02:33:12;98627.44;;;8.73;78.92
41800;BME280;27468;47.460;19.034;2023-03-09T02:35:45;98599.41;;;8.51;78.64
41800;BME280;27468;47.460;19.034;2023-03-09T02:38:13;98617.44;;;8.60;79.32
41800;BME280;27468;47.460;19.034;2023-03-09T02:40:39;98602.28;;;8.45;79.51
41800;BME280;27468;47.460;19.034;2023-03-09T02:43:05;98592.16;;;8.36;79.73
41800;BME280;27468;47.460;19.034;2023-03-09T02:45:32;98594.78;;;8.36;79.91
41800;BME280;27468;47.460;19.034;2023-03-09T02:47:58;98600.69;;;8.41;80.17
41800;BME280;27468;47.460;19.034;2023-03-09T02:50:24;98594.53;;;8.42;79.90
41800;BME280;27468;47.460;19.034;2023-03-09T02:52:50;98550.16;;;8.13;80.10
41800;BME280;27468;47.460;19.034;2023-03-09T02:55:16;98586.72;;;8.41;79.76
41800;BME280;27468;47.460;19.034;2023-03-09T02:57:42;98619.56;;;8.51;79.66
41800;BME280;27468;47.460;19.034;2023-03-09T03:00:09;98638.63;;;8.56;79.72
41800;BME280;27468;47.460;19.034;2023-03-09T03:02:36;98631.84;;;8.50;79.99
41800;BME280;27468;47.460;19.034;2023-03-09T03:05:02;98635.69;;;8.42;80.38
41800;BME280;27468;47.460;19.034;2023-03-09T03:07:27;98622.03;;;8.32;80.16
41800;BME280;27468;47.460;19.034;2023-03-09T03:09:53;98634.03;;;8.39;80.26
41800;BME280;27468;47.460;19.034;2023-03-09T03:12:18;98627.34;;;8.31;80.10
41800;BME280;27468;47.460;19.034;2023-03-09T03:14:44;98651.75;;;8.34;79.96
41800;BME280;27468;47.460;19.034;2023-03-09T03:17:10;98598.91;;;7.97;79.91
41800;BME280;27468;47.460;19.034;2023-03-09T03:19:35;98628.09;;;8.11;80.84
41800;BME280;27468;47.460;19.034;2023-03-09T03:22:02;98637.50;;;8.16;81.22
41800;BME280;27468;47.460;19.034;2023-03-09T03:24:28;98632.84;;;8.01;80.98
41800;BME280;27468;47.460;19.034;2023-03-09T03:26:53;98602.50;;;7.94;81.01
41800;BME280;27468;47.460;19.034;2023-03-09T03:29:18;98634.06;;;7.92;81.87
41800;BME280;27468;47.460;19.034;2023-03-09T03:31:44;98606.09;;;7.68;82.58
41800;BME280;27468;47.460;19.034;2023-03-09T03:34:09;98630.06;;;7.82;82.24
41800;BME280;27468;47.460;19.034;2023-03-09T03:36:35;98634.78;;;7.73;82.88
41800;BME280;27468;47.460;19.034;2023-03-09T03:39:00;98643.22;;;7.81;83.16
41800;BME280;27468;47.460;19.034;2023-03-09T03:41:26;98641.78;;;7.72;83.60
41800;BME280;27468;47.460;19.034;2023-03-09T03:43:51;98658.22;;;7.77;83.65
41800;BME280;27468;47.460;19.034;2023-03-09T03:46:17;98653.41;;;7.65;83.95
41800;BME280;27468;47.460;19.034;2023-03-09T03:48:43;98667.75;;;7.80;83.98
41800;BME280;27468;47.460;19.034;2023-03-09T03:51:08;98647.25;;;7.66;83.87
41800;BME280;27468;47.460;19.034;2023-03-09T03:53:35;98581.16;;;7.33;84.01
41800;BME280;27468;47.460;19.034;2023-03-09T03:56:00;98631.66;;;7.61;84.35
41800;BME280;27468;47.460;19.034;2023-03-09T03:58:28;98626.53;;;7.58;84.23
41800;BME280;27468;47.460;19.034;2023-03-09T04:00:53;98653.19;;;7.71;84.25
41800;BME280;27468;47.460;19.034;2023-03-09T04:03:19;98629.91;;;7.62;84.64
41800;BME280;27468;47.460;19.034;2023-03-09T04:05:45;98601.03;;;7.39;84.79
41800;BME280;27468;47.460;19.034;2023-03-09T04:08:11;98577.94;;;7.25;84.89
41800;BME280;27468;47.460;19.034;2023-03-09T04:10:40;98594.16;;;7.36;85.20
41800;BME280;27468;47.460;19.034;2023-03-09T04:13:05;98613.63;;;7.52;85.22
41800;BME280;27468;47.460;19.034;2023-03-09T04:15:32;98650.63;;;7.70;85.39
41800;BME280;27468;47.460;19.034;2023-03-09T04:17:58;98644.41;;;7.72;85.20
41800;BME280;27468;47.460;19.034;2023-03-09T04:20:29;98630.66;;;7.66;84.85
41800;BME280;27468;47.460;19.034;2023-03-09T04:22:54;98587.38;;;7.54;84.77
41800;BME280;27468;47.460;19.034;2023-03-09T04:25:20;98515.78;;;7.04;85.13
41800;BME280;27468;47.460;19.034;2023-03-09T04:27:45;98605.56;;;7.58;85.22
41800;BME280;27468;47.460;19.034;2023-03-09T04:30:11;98587.50;;;7.51;85.01
41800;BME280;27468;47.460;19.034;2023-03-09T04:32:37;98554.34;;;7.25;85.16
41800;BME280;27468;47.460;19.034;2023-03-09T04:35:04;98623.16;;;7.55;85.21
41800;BME280;27468;47.460;19.034;2023-03-09T04:37:30;98622.31;;;7.54;85.43
41800;BME280;27468;47.460;19.034;2023-03-09T04:39:55;98605.00;;;7.50;85.47
41800;BME280;27468;47.460;19.034;2023-03-09T04:42:20;98598.81;;;7.51;85.66
41800;BME280;27468;47.460;19.034;2023-03-09T04:44:46;98598.50;;;7.60;85.69
41800;BME280;27468;47.460;19.034;2023-03-09T04:47:12;98546.38;;;7.28;85.99
41800;BME280;27468;47.460;19.034;2023-03-09T04:49:41;98525.94;;;7.13;85.73
41800;BME280;27468;47.460;19.034;2023-03-09T04:52:07;98542.25;;;7.21;86.02
41800;BME280;27468;47.460;19.034;2023-03-09T04:54:33;98575.53;;;7.44;86.16
41800;BME280;27468;47.460;19.034;2023-03-09T04:56:58;98593.34;;;7.57;86.15
41800;BME280;27468;47.460;19.034;2023-03-09T04:59:24;98581.31;;;7.52;85.79
41800;BME280;27468;47.460;19.034;2023-03-09T05:01:49;98601.06;;;7.62;85.82
41800;BME280;27468;47.460;19.034;2023-03-09T05:04:15;98530.13;;;7.18;86.00
41800;BME280;27468;47.460;19.034;2023-03-09T05:06:40;98556.69;;;7.33;86.17
41800;BME280;27468;47.460;19.034;2023-03-09T05:09:06;98600.47;;;7.54;86.29
41800;BME280;27468;47.460;19.034;2023-03-09T05:11:32;98612.69;;;7.55;86.35
41800;BME280;27468;47.460;19.034;2023-03-09T05:13:58;98537.00;;;7.21;86.29
41800;BME280;27468;47.460;19.034;2023-03-09T05:16:23;98583.94;;;7.52;86.65
41800;BME280;27468;47.460;19.034;2023-03-09T05:18:50;98530.06;;;7.20;86.35
41800;BME280;27468;47.460;19.034;2023-03-09T05:21:16;98607.00;;;7.67;86.08
41800;BME280;27468;47.460;19.034;2023-03-09T05:23:41;98614.06;;;7.65;86.39
41800;BME280;27468;47.460;19.034;2023-03-09T05:26:07;98594.16;;;7.59;86.28
41800;BME280;27468;47.460;19.034;2023-03-09T05:28:37;98561.66;;;7.40;86.44
41800;BME280;27468;47.460;19.034;2023-03-09T05:31:13;98627.66;;;7.76;86.06
41800;BME280;27468;47.460;19.034;2023-03-09T05:33:38;98566.75;;;7.45;85.83
41800;BME280;27468;47.460;19.034;2023-03-09T05:36:15;98588.75;;;7.64;85.69
41800;BME280;27468;47.460;19.034;2023-03-09T05:38:41;98585.09;;;7.68;86.01
41800;BME280;27468;47.460;19.034;2023-03-09T05:41:06;98562.50;;;7.64;86.07
41800;BME280;27468;47.460;19.034;2023-03-09T05:43:32;98575.34;;;7.72;85.92
41800;BME280;27468;47.460;19.034;2023-03-09T05:45:57;98568.97;;;7.79;85.78
41800;BME280;27468;47.460;19.034;2023-03-09T05:48:23;98549.91;;;7.74;85.32
41800;BME280;27468;47.460;19.034;2023-03-09T05:50:48;98607.25;;;8.08;85.39
41800;BME280;27468;47.460;19.034;2023-03-09T05:53:14;98572.38;;;8.04;85.16
41800;BME280;27468;47.460;19.034;2023-03-09T05:55:39;98546.84;;;7.86;85.00
41800;BME280;27468;47.460;19.034;2023-03-09T05:58:05;98617.06;;;8.24;85.05
41800;BME280;27468;47.460;19.034;2023-03-09T06:00:30;98596.41;;;8.15;84.65
41800;BME280;27468;47.460;19.034;2023-03-09T06:02:56;98584.81;;;8.21;84.62
41800;BME280;27468;47.460;19.034;2023-03-09T06:05:21;98607.97;;;8.35;84.54
41800;BME280;27468;47.460;19.034;2023-03-09T06:07:46;98599.97;;;8.38;84.61
41800;BME280;27468;47.460;19.034;2023-03-09T06:10:12;98594.78;;;8.36;84.53
41800;BME280;27468;47.460;19.034;2023-03-09T06:12:38;98576.22;;;8.41;84.25
41800;BME280;27468;47.460;19.034;2023-03-09T06:15:04;98565.94;;;8.35;83.95
41800;BME280;27468;47.460;19.034;2023-03-09T06:17:29;98584.69;;;8.47;83.70
41800;BME280;27468;47.460;19.034;2023-03-09T06:19:55;98595.38;;;8.65;83.29
41800;BME280;27468;47.460;19.034;2023-03-09T06:22:20;98616.88;;;8.74;83.19
41800;BME280;27468;47.460;19.034;2023-03-09T06:24:46;98572.38;;;8.49;83.14
41800;BME280;27468;47.460;19.034;2023-03-09T06:27:11;98621.63;;;8.86;82.79
41800;BME280;27468;47.460;19.034;2023-03-09T06:29:36;98607.81;;;8.81;82.79
41800;BME280;27468;47.460;19.034;2023-03-09T06:32:02;98617.75;;;8.95;82.72
41800;BME280;27468;47.460;19.034;2023-03-09T06:34:29;98627.22;;;8.99;82.53
41800;BME280;27468;47.460;19.034;2023-03-09T06:36:54;98622.53;;;9.07;82.40
41800;BME280;27468;47.460;19.034;2023-03-09T06:39:20;98578.84;;;8.83;81.95
41800;BME280;27468;47.460;19.034;2023-03-09T06:41:45;98618.78;;;9.13;81.99
41800;BME280;27468;47.460;19.034;2023-03-09T06:44:11;98595.56;;;9.02;81.65
41800;BME280;27468;47.460;19.034;2023-03-09T06:46:36;98615.09;;;9.17;81.72
41800;BME280;27468;47.460;19.034;2023-03-09T06:49:02;98617.47;;;9.23;82.00
41800;BME280;27468;47.460;19.034;2023-03-09T06:51:27;98588.34;;;9.07;82.01
41800;BME280;27468;47.460;19.034;2023-03-09T06:53:52;98618.63;;;9.36;81.79
41800;BME280;27468;47.460;19.034;2023-03-09T06:56:18;98624.41;;;9.44;81.68
41800;BME280;27468;47.460;19.034;2023-03-09T06:58:43;98618.84;;;9.52;81.46
41800;BME280;27468;47.460;19.034;2023-03-09T07:01:10;98603.31;;;9.46;81.25
41800;BME280;27468;47.460;19.034;2023-03-09T07:03:37;98622.78;;;9.62;81.19
41800;BME280;27468;47.460;19.034;2023-03-09T07:06:03;98637.03;;;9.77;81.01
41800;BME280;27468;47.460;19.034;2023-03-09T07:08:29;98621.97;;;9.80;80.66
41800;BME280;27468;47.460;19.034;2023-03-09T07:10:54;98616.78;;;9.79;80.36
41800;BME280;27468;47.460;19.034;2023-03-09T07:13:19;98626.00;;;9.87;79.65
41800;BME280;27468;47.460;19.034;2023-03-09T07:15:46;98615.41;;;9.89;79.34
41800;BME280;27468;47.460;19.034;2023-03-09T07:18:11;98582.03;;;9.71;79.21
41800;BME280;27468;47.460;19.034;2023-03-09T07:20:38;98628.47;;;10.11;79.04
41800;BME280;27468;47.460;19.034;2023-03-09T07:23:04;98607.53;;;10.08;78.55
41800;BME280;27468;47.460;19.034;2023-03-09T07:25:30;98623.84;;;10.16;78.45
41800;BME280;27468;47.460;19.034;2023-03-09T07:28:00;98619.63;;;10.12;78.19
41800;BME280;27468;47.460;19.034;2023-03-09T07:30:26;98632.34;;;10.22;77.82
41800;BME280;27468;47.460;19.034;2023-03-09T07:32:53;98596.06;;;10.09;77.65
41800;BME280;27468;47.460;19.034;2023-03-09T07:35:19;98602.84;;;10.14;77.19
41800;BME280;27468;47.460;19.034;2023-03-09T07:37:45;98651.53;;;10.43;77.19
41800;BME280;27468;47.460;19.034;2023-03-09T07:40:10;98661.72;;;10.51;77.22
41800;BME280;27468;47.460;19.034;2023-03-09T07:42:36;98654.47;;;10.56;76.59
41800;BME280;27468;47.460;19.034;2023-03-09T07:45:02;98649.91;;;10.59;76.72
41800;BME280;27468;47.460;19.034;2023-03-09T07:47:27;98650.47;;;10.66;76.55
41800;BME280;27468;47.460;19.034;2023-03-09T07:49:53;98618.50;;;10.55;76.08
41800;BME280;27468;47.460;19.034;2023-03-09T07:52:18;98588.09;;;10.48;75.90
41800;BME280;27468;47.460;19.034;2023-03-09T07:54:43;98613.72;;;10.63;76.20
41800;BME280;27468;47.460;19.034;2023-03-09T07:57:09;98599.91;;;10.58;75.83
41800;BME280;27468;47.460;19.034;2023-03-09T07:59:34;98646.72;;;10.89;75.73
41800;BME280;27468;47.460;19.034;2023-03-09T08:02:00;98635.25;;;10.90;75.57
41800;BME280;27468;47.460;19.034;2023-03-09T08:04:25;98638.44;;;10.97;75.33
41800;BME280;27468;47.460;19.034;2023-03-09T08:06:51;98633.16;;;10.97;75.04
41800;BME280;27468;47.460;19.034;2023-03-09T08:09:16;98633.53;;;11.06;75.18
41800;BME280;27468;47.460;19.034;2023-03-09T08:11:42;98626.13;;;10.97;75.07
41800;BME280;27468;47.460;19.034;2023-03-09T08:14:11;98651.84;;;11.09;75.14
41800;BME280;27468;47.460;19.034;2023-03-09T08:16:37;98656.19;;;11.10;74.98
41800;BME280;27468;47.460;19.034;2023-03-09T08:19:02;98608.09;;;10.88;75.07
41800;BME280;27468;47.460;19.034;2023-03-09T08:21:28;98641.00;;;11.15;75.15
41800;BME280;27468;47.460;19.034;2023-03-09T08:23:53;98662.28;;;11.30;74.98
41800;BME280;27468;47.460;19.034;2023-03-09T08:26:19;98676.25;;;11.32;74.68
41800;BME280;27468;47.460;19.034;2023-03-09T08:28:45;98685.63;;;11.37;74.71
41800;BME280;27468;47.460;19.034;2023-03-09T08:31:15;98645.34;;;11.16;74.19
41800;BME280;27468;47.460;19.034;2023-03-09T08:33:44;98684.72;;;11.38;73.89
41800;BME280;27468;47.460;19.034;2023-03-09T08:38:37;98683.38;;;11.64;73.36
41800;BME280;27468;47.460;19.034;2023-03-09T08:41:02;98680.34;;;11.72;73.22
41800;BME280;27468;47.460;19.034;2023-03-09T08:43:28;98683.63;;;11.77;72.70
41800;BME280;27468;47.460;19.034;2023-03-09T08:45:53;98622.91;;;11.59;72.26
41800;BME280;27468;47.460;19.034;2023-03-09T08:48:19;98663.19;;;11.98;72.13
41800;BME280;27468;47.460;19.034;2023-03-09T08:50:44;98638.06;;;12.06;71.54
41800;BME280;27468;47.460;19.034;2023-03-09T08:53:09;98636.88;;;12.12;71.35
41800;BME280;27468;47.460;19.034;2023-03-09T08:55:35;98646.25;;;12.17;71.20
41800;BME280;27468;47.460;19.034;2023-03-09T08:58:00;98644.03;;;12.26;71.02
41800;BME280;27468;47.460;19.034;2023-03-09T09:00:26;98653.59;;;12.28;70.61
41800;BME280;27468;47.460;19.034;2023-03-09T09:02:52;98653.09;;;12.37;70.81
41800;BME280;27468;47.460;19.034;2023-03-09T09:05:18;98645.09;;;12.39;70.45
41800;BME280;27468;47.460;19.034;2023-03-09T09:07:44;98656.19;;;12.45;70.08
41800;BME280;27468;47.460;19.034;2023-03-09T09:10:09;98646.13;;;12.52;69.95
41800;BME280;27468;47.460;19.034;2023-03-09T09:12:35;98654.47;;;12.60;69.71
41800;BME280;27468;47.460;19.034;2023-03-09T09:15:06;98651.25;;;12.71;68.98
41800;BME280;27468;47.460;19.034;2023-03-09T09:17:35;98663.31;;;12.90;68.95
41800;BME280;27468;47.460;19.034;2023-03-09T09:20:01;98672.38;;;13.02;68.41
41800;BME280;27468;47.460;19.034;2023-03-09T09:22:27;98664.75;;;13.12;67.98
41800;BME280;27468;47.460;19.034;2023-03-09T09:24:52;98666.63;;;13.10;67.57
41800;BME280;27468;47.460;19.034;2023-03-09T09:27:18;98679.47;;;13.17;67.20
41800;BME280;27468;47.460;19.034;2023-03-09T09:29:43;98672.38;;;13.18;67.13
41800;BME280;27468;47.460;19.034;2023-03-09T09:32:09;98680.44;;;13.31;66.97
41800;BME280;27468;47.460;19.034;2023-03-09T09:34:34;98646.66;;;13.04;66.65
41800;BME280;27468;47.460;19.034;2023-03-09T09:37:01;98642.16;;;13.06;66.52
41800;BME280;27468;47.460;19.034;2023-03-09T09:39:28;98681.78;;;13.38;66.72
41800;BME280;27468;47.460;19.034;2023-03-09T09:41:58;98685.06;;;13.57;66.26
41800;BME280;27468;47.460;19.034;2023-03-09T09:44:28;98687.00;;;13.69;66.36
41800;BME280;27468;47.460;19.034;2023-03-09T09:46:59;98656.88;;;13.56;65.98
41800;BME280;27468;47.460;19.034;2023-03-09T09:49:27;98688.16;;;13.79;65.95
41800;BME280;27468;47.460;19.034;2023-03-09T09:57:01;98664.78;;;14.00;65.14
41800;BME280;27468;47.460;19.034;2023-03-09T09:59:41;98654.47;;;14.24;64.43
41800;BME280;27468;47.460;19.034;2023-03-09T10:04:47;98674.25;;;14.61;62.79
41800;BME280;27468;47.460;19.034;2023-03-09T10:07:17;98682.38;;;14.72;62.67
41800;BME280;27468;47.460;19.034;2023-03-09T10:09:46;98643.75;;;14.54;62.15
41800;BME280;27468;47.460;19.034;2023-03-09T10:12:15;98673.28;;;14.76;61.92
41800;BME280;27468;47.460;19.034;2023-03-09T10:14:52;98700.28;;;14.83;61.64
41800;BME280;27468;47.460;19.034;2023-03-09T10:17:37;98686.81;;;14.86;61.93
41800;BME280;27468;47.460;19.034;2023-03-09T10:22:39;98676.75;;;15.18;61.20
41800;BME280;27468;47.460;19.034;2023-03-09T10:25:11;98680.66;;;15.39;59.84
41800;BME280;27468;47.460;19.034;2023-03-09T10:27:44;98677.81;;;15.55;59.25
41800;BME280;27468;47.460;19.034;2023-03-09T10:33:08;98680.00;;;15.88;57.70
41800;BME280;27468;47.460;19.034;2023-03-09T10:38:11;98634.09;;;15.86;57.01
41800;BME280;27468;47.460;19.034;2023-03-09T10:40:42;98698.41;;;16.29;56.15
41800;BME280;27468;47.460;19.034;2023-03-09T10:45:48;98656.06;;;16.26;55.95
41800;BME280;27468;47.460;19.034;2023-03-09T10:48:24;98692.41;;;16.64;55.78
41800;BME280;27468;47.460;19.034;2023-03-09T10:50:57;98701.34;;;16.75;55.47
41800;BME280;27468;47.460;19.034;2023-03-09T10:58:45;98668.81;;;16.96;52.48
41800;BME280;27468;47.460;19.034;2023-03-09T11:03:41;98662.88;;;17.16;51.41
41800;BME280;27468;47.460;19.034;2023-03-09T11:06:18;98694.06;;;17.38;51.29
41800;BME280;27468;47.460;19.034;2023-03-09T11:08:57;98691.19;;;17.41;51.33
41800;BME280;27468;47.460;19.034;2023-03-09T11:11:25;98690.22;;;17.42;51.41
41800;BME280;27468;47.460;19.034;2023-03-09T11:13:51;98672.66;;;17.39;51.20
41800;BME280;27468;47.460;19.034;2023-03-09T11:18:46;98678.94;;;17.38;51.10
41800;BME280;27468;47.460;19.034;2023-03-09T11:21:21;98687.09;;;17.48;48.63
41800;BME280;27468;47.460;19.034;2023-03-09T11:23:51;98688.69;;;17.50;48.14
41800;BME280;27468;47.460;19.034;2023-03-09T11:26:22;98704.28;;;17.44;46.54
41800;BME280;27468;47.460;19.034;2023-03-09T11:31:36;98702.47;;;17.44;45.75
41800;BME280;27468;47.460;19.034;2023-03-09T11:34:02;98648.13;;;16.99;46.17
41800;BME280;27468;47.460;19.034;2023-03-09T11:37:16;98703.63;;;17.29;46.76
41800;BME280;27468;47.460;19.034;2023-03-09T11:39:48;98703.84;;;17.26;46.96
41800;BME280;27468;47.460;19.034;2023-03-09T11:44:56;98697.50;;;17.16;45.24
41800;BME280;27468;47.460;19.034;2023-03-09T11:47:38;98690.47;;;17.15;45.39
41800;BME280;27468;47.460;19.034;2023-03-09T11:50:29;98733.63;;;17.55;45.23
41800;BME280;27468;47.460;19.034;2023-03-09T11:53:04;98736.06;;;17.58;44.61
41800;BME280;27468;47.460;19.034;2023-03-09T11:55:38;98734.78;;;17.64;44.62
41800;BME280;27468;47.460;19.034;2023-03-09T11:58:12;98753.63;;;17.73;44.63
41800;BME280;27468;47.460;19.034;2023-03-09T12:00:44;98720.09;;;17.58;43.95
41800;BME280;27468;47.460;19.034;2023-03-09T12:03:14;98749.25;;;17.72;44.35
41800;BME280;27468;47.460;19.034;2023-03-09T12:05:46;98703.94;;;17.48;44.64
41800;BME280;27468;47.460;19.034;2023-03-09T12:08:19;98756.75;;;17.67;44.66
41800;BME280;27468;47.460;19.034;2023-03-09T12:11:01;98759.69;;;17.75;44.30
41800;BME280;27468;47.460;19.034;2023-03-09T12:13:34;98756.00;;;17.65;44.42
41800;BME280;27468;47.460;19.034;2023-03-09T12:16:08;98764.75;;;17.67;44.32
41800;BME280;27468;47.460;19.034;2023-03-09T12:18:38;98749.91;;;17.63;44.33
41800;BME280;27468;47.460;19.034;2023-03-09T12:21:06;98743.34;;;17.56;44.34
41800;BME280;27468;47.460;19.034;2023-03-09T12:28:29;98778.50;;;17.61;43.61
41800;BME280;27468;47.460;19.034;2023-03-09T12:30:56;98792.88;;;17.71;44.29
41800;BME280;27468;47.460;19.034;2023-03-09T12:36:28;98755.13;;;17.41;44.20
41800;BME280;27468;47.460;19.034;2023-03-09T12:42:00;98796.78;;;17.78;42.83
41800;BME280;27468;47.460;19.034;2023-03-09T12:50:04;98754.19;;;17.66;41.78
41800;BME280;27468;47.460;19.034;2023-03-09T12:55:19;98806.59;;;17.78;40.39
41800;BME280;27468;47.460;19.034;2023-03-09T12:57:47;98755.28;;;17.50;40.67
41800;BME280;27468;47.460;19.034;2023-03-09T13:00:25;98808.19;;;17.80;39.31
41800;BME280;27468;47.460;19.034;2023-03-09T13:03:16;98810.97;;;17.79;39.33
41800;BME280;27468;47.460;19.034;2023-03-09T13:05:48;98802.47;;;17.74;39.15
41800;BME280;27468;47.460;19.034;2023-03-09T13:08:26;98821.00;;;17.75;39.27
41800;BME280;27468;47.460;19.034;2023-03-09T13:29:38;98796.16;;;17.38;38.41
41800;BME280;27468;47.460;19.034;2023-03-09T13:32:05;98811.25;;;17.50;38.96
41800;BME280;27468;47.460;19.034;2023-03-09T13:34:40;98830.63;;;17.53;38.36
41800;BME280;27468;47.460;19.034;2023-03-09T13:37:14;98808.72;;;17.36;37.90
41800;BME280;27468;47.460;19.034;2023-03-09T13:39:58;98844.28;;;17.48;38.20
41800;BME280;27468;47.460;19.034;2023-03-09T13:42:24;98810.38;;;17.26;38.27
41800;BME280;27468;47.460;19.034;2023-03-09T13:44:50;98835.03;;;17.41;38.37
41800;BME280;27468;47.460;19.034;2023-03-09T13:47:23;98813.28;;;17.23;38.37
41800;BME280;27468;47.460;19.034;2023-03-09T13:49:49;98846.09;;;17.47;38.28
41800;BME280;27468;47.460;19.034;2023-03-09T13:52:16;98838.84;;;17.49;38.34
41800;BME280;27468;47.460;19.034;2023-03-09T13:55:03;98845.22;;;17.60;37.74
41800;BME280;27468;47.460;19.034;2023-03-09T14:00:00;98861.97;;;17.62;37.81
41800;BME280;27468;47.460;19.034;2023-03-09T14:02:28;98859.72;;;17.56;37.83
41800;BME280;27468;47.460;19.034;2023-03-09T14:07:29;98849.63;;;17.48;38.15
41800;BME280;27468;47.460;19.034;2023-03-09T14:09:57;98833.06;;;17.32;38.64
41800;BME280;27468;47.460;19.034;2023-03-09T14:12:36;98836.16;;;17.26;38.12
41800;BME280;27468;47.460;19.034;2023-03-09T14:15:05;98877.16;;;17.36;37.75
41800;BME280;27468;47.460;19.034;2023-03-09T14:17:33;98824.91;;;16.97;37.22
41800;BME280;27468;47.460;19.034;2023-03-09T14:20:00;98863.13;;;17.21;37.43
41800;BME280;27468;47.460;19.034;2023-03-09T14:22:28;98870.81;;;17.26;37.01
41800;BME280;27468;47.460;19.034;2023-03-09T14:24:54;98868.47;;;17.08;37.01
41800;BME280;27468;47.460;19.034;2023-03-09T14:27:31;98876.34;;;17.10;37.25
41800;BME280;27468;47.460;19.034;2023-03-09T14:30:50;98867.63;;;17.08;36.86